Time;durP1;ratioP1;P1;durP2;ratioP2;P2;SDS_P1;SDS_P2;PMS_P1;PMS_P2;Temp;Humidity;BMP_temperature;BMP_pressure;BME280_temperature;BME280_humidity;BME280_pressure;Samples;Min_cycle;Max_cycle;Signal;HPM_P1;HPM_P2
2022/06/24 00:00:32;;;;;;;3.75;3.45;;;;;;;23.29;62.17;94548.19;4895348;29;20193;-87
2022/06/24 00:02:59;;;;;;;3.10;2.75;;;;;;;23.28;62.31;94544.78;4883132;29;20205;-84
2022/06/24 00:05:30;;;;;;;3.83;3.47;;;;;;;23.25;62.22;94545.22;4879332;29;20269;-83
2022/06/24 00:07:57;;;;;;;2.90;2.63;;;;;;;23.25;62.52;94540.00;4882661;29;20201;-83
2022/06/24 00:10:26;;;;;;;7.88;3.22;;;;;;;23.24;62.29;94548.84;4882052;29;20221;-86
2022/06/24 00:13:03;;;;;;;3.08;2.83;;;;;;;23.22;62.51;94561.31;4880868;29;20201;-82
2022/06/24 00:15:31;;;;;;;3.13;2.83;;;;;;;23.19;62.52;94556.56;4880943;29;20200;-83
2022/06/24 00:17:59;;;;;;;4.25;3.30;;;;;;;23.19;62.78;94560.97;4880965;29;20194;-87
2022/06/24 00:20:26;;;;;;;6.40;3.63;;;;;;;23.18;62.96;94565.38;4880509;29;20260;-83
2022/06/24 00:22:53;;;;;;;4.05;3.15;;;;;;;23.16;63.06;94575.25;4880462;29;20201;-86
2022/06/24 00:25:22;;;;;;;3.40;3.00;;;;;;;23.13;63.07;94573.06;4881536;29;20232;-83
2022/06/24 00:28:05;;;;;;;3.55;3.25;;;;;;;22.97;62.85;94556.19;4880789;29;20208;-77
2022/06/24 00:30:37;;;;;;;4.18;3.65;;;;;;;23.07;63.04;94576.56;4880273;29;20201;-81
2022/06/24 00:33:12;;;;;;;3.67;2.88;;;;;;;23.10;63.02;94583.13;4880973;29;20193;-84
2022/06/24 00:35:41;;;;;;;3.63;3.22;;;;;;;23.09;63.16;94586.75;4880372;29;20221;-84
2022/06/24 00:38:22;;;;;;;6.32;3.20;;;;;;;23.07;63.16;94589.59;4880986;29;20668;-85
2022/06/24 00:40:51;;;;;;;6.93;3.28;;;;;;;23.02;63.35;94585.03;4881437;29;20229;-85
2022/06/24 00:43:28;;;;;;;4.53;2.78;;;;;;;23.06;63.67;94585.41;4882196;29;20208;-85
2022/06/24 00:46:03;;;;;;;3.58;2.97;;;;;;;23.04;63.52;94590.03;4881866;29;20247;-83
2022/06/24 00:48:35;;;;;;;9.95;3.40;;;;;;;22.99;63.70;94579.44;4880862;29;20203;-84
2022/06/24 00:51:03;;;;;;;5.13;3.05;;;;;;;23.03;63.60;94588.44;4880975;29;20208;-84
2022/06/24 00:53:30;;;;;;;5.30;2.88;;;;;;;23.00;63.65;94575.81;4881204;29;20220;-86
2022/06/24 00:55:57;;;;;;;9.20;3.33;;;;;;;23.02;63.40;94590.25;4881233;29;20669;-86
2022/06/24 00:58:26;;;;;;;6.55;3.20;;;;;;;23.02;63.50;94581.63;4881415;29;20204;-85
2022/06/24 01:00:54;;;;;;;3.03;2.80;;;;;;;23.01;63.41;94586.06;4881466;29;20316;-84
2022/06/24 01:03:21;;;;;;;5.00;3.60;;;;;;;23.00;63.40;94588.84;4889396;29;20201;-84
2022/06/24 01:05:47;;;;;;;5.22;2.90;;;;;;;23.01;63.68;94582.63;4890665;29;20227;-84
2022/06/24 01:08:15;;;;;;;3.13;2.83;;;;;;;22.98;63.57;94583.88;4888958;29;20200;-81
2022/06/24 01:10:48;;;;;;;3.10;2.83;;;;;;;22.98;63.43;94594.31;4888957;29;20228;-85
2022/06/24 01:13:15;;;;;;;4.40;3.17;;;;;;;22.98;63.45;94596.13;4889130;29;20197;-84
2022/06/24 01:15:43;;;;;;;5.32;3.15;;;;;;;22.97;63.38;94599.72;4886061;29;20229;-84
2022/06/24 01:18:10;;;;;;;4.28;3.42;;;;;;;22.90;63.58;94596.41;4880698;29;20197;-86
2022/06/24 01:20:37;;;;;;;3.15;2.95;;;;;;;22.83;63.47;94579.97;4880358;29;20721;-87
2022/06/24 01:23:05;;;;;;;7.53;3.45;;;;;;;22.92;63.58;94597.75;4879693;29;20197;-84
2022/06/24 01:25:32;;;;;;;6.38;3.40;;;;;;;22.91;63.54;94595.38;4880589;29;20633;-85
2022/06/24 01:28:00;;;;;;;3.25;2.95;;;;;;;22.88;63.39;94582.72;4881329;29;20201;-84
2022/06/24 01:30:28;;;;;;;7.25;3.30;;;;;;;22.88;63.55;94590.56;4881229;29;20193;-86
2022/06/24 01:32:55;;;;;;;3.42;2.90;;;;;;;22.89;63.44;94594.78;4880739;29;20196;-82
2022/06/24 01:35:22;;;;;;;3.60;3.30;;;;;;;22.85;63.69;94599.63;4881350;29;20280;-85
2022/06/24 01:37:49;;;;;;;4.60;3.10;;;;;;;22.81;63.54;94588.03;4879986;29;20268;-85
2022/06/24 01:40:17;;;;;;;5.93;3.30;;;;;;;22.83;63.50;94587.81;4879424;29;20204;-84
2022/06/24 01:42:44;;;;;;;3.17;2.88;;;;;;;22.77;63.65;94587.66;4879293;29;20193;-85
2022/06/24 01:45:11;;;;;;;4.65;2.90;;;;;;;22.77;63.70;94589.47;4879483;29;20229;-84
2022/06/24 01:47:38;;;;;;;8.50;3.78;;;;;;;22.73;63.93;94578.66;4880388;29;20204;-85
2022/06/24 01:50:07;;;;;;;6.53;3.50;;;;;;;22.75;63.84;94583.66;4882081;29;20225;-85
2022/06/24 01:52:34;;;;;;;4.75;3.28;;;;;;;22.74;63.85;94580.25;4880324;29;20197;-85
2022/06/24 01:55:01;;;;;;;5.55;3.05;;;;;;;22.74;63.77;94582.06;4881025;29;20588;-84
2022/06/24 01:57:29;;;;;;;4.60;3.47;;;;;;;22.65;64.14;94558.09;4880208;29;20224;-85
2022/06/24 01:59:59;;;;;;;5.07;3.67;;;;;;;22.69;64.17;94567.06;4880088;29;20208;-85
2022/06/24 02:02:26;;;;;;;6.43;3.58;;;;;;;22.67;64.01;94550.06;4879519;29;20220;-84
2022/06/24 02:04:54;;;;;;;5.70;3.80;;;;;;;22.64;63.96;94543.47;4879068;29;20201;-86
2022/06/24 02:07:22;;;;;;;3.45;3.15;;;;;;;22.61;64.07;94543.09;4879322;29;20239;-84
2022/06/24 02:15:20;;;;;;;3.50;3.00;;;;;;;22.56;64.41;94551.56;4879613;29;20321;-85
2022/06/24 02:17:47;;;;;;;4.93;3.15;;;;;;;22.55;64.30;94555.19;4880507;29;20203;-86
2022/06/24 02:20:14;;;;;;;3.78;3.40;;;;;;;22.53;64.58;94557.19;4880244;29;20243;-86
2022/06/24 02:22:41;;;;;;;3.60;3.30;;;;;;;22.52;64.73;94560.81;4880446;29;20200;-86
2022/06/24 02:25:08;;;;;;;8.80;3.63;;;;;;;22.51;64.50;94557.44;4883466;29;20197;-86
2022/06/24 02:27:36;;;;;;;6.00;3.72;;;;;;;22.48;64.71;94544.81;4881456;29;20200;-86
2022/06/24 02:30:04;;;;;;;4.55;3.95;;;;;;;22.48;64.68;94552.63;4880130;29;20199;-83
2022/06/24 02:32:31;;;;;;;4.05;3.75;;;;;;;22.48;64.85;94562.25;4878854;29;20726;-84
2022/06/24 02:34:58;;;;;;;6.05;4.28;;;;;;;22.46;64.99;94565.09;4878372;29;20277;-82
2022/06/24 02:37:25;;;;;;;7.47;4.05;;;;;;;22.45;64.92;94570.50;4878845;29;20201;-84
2022/06/24 02:39:52;;;;;;;4.70;3.75;;;;;;;22.43;65.14;94575.16;4878171;29;20578;-85
2022/06/24 02:42:18;;;;;;;4.70;3.72;;;;;;;22.40;65.20;94576.34;4877945;29;20193;-80
2022/06/24 02:44:47;;;;;;;4.75;4.00;;;;;;;22.42;65.24;94563.94;4878361;29;20204;-84
2022/06/24 02:47:14;;;;;;;4.55;3.60;;;;;;;22.42;65.16;94556.09;4878293;29;20236;-85
2022/06/24 02:49:41;;;;;;;3.90;3.60;;;;;;;22.28;65.33;94537.19;4878578;29;20276;-82
2022/06/24 02:52:08;;;;;;;7.50;4.28;;;;;;;22.42;65.53;94560.53;4878038;29;20289;-85
2022/06/24 02:54:35;;;;;;;5.93;3.92;;;;;;;22.42;65.67;94556.09;4878995;29;20204;-83
2022/06/24 02:57:02;;;;;;;6.85;3.92;;;;;;;22.41;65.63;94551.91;4878203;29;20201;-83
2022/06/24 02:59:29;;;;;;;4.20;3.83;;;;;;;22.41;65.56;94556.31;4878923;29;20618;-85
2022/06/24 03:01:57;;;;;;;7.18;4.38;;;;;;;22.40;65.50;94570.34;4879060;29;20207;-84
2022/06/24 03:04:24;;;;;;;6.13;3.78;;;;;;;22.40;65.48;94571.16;4880517;29;20208;-82
2022/06/24 03:06:50;;;;;;;6.30;3.67;;;;;;;22.39;65.35;94577.38;4879157;29;20243;-85
2022/06/24 03:09:17;;;;;;;6.20;4.05;;;;;;;22.38;65.28;94569.78;4880285;29;20214;-81
2022/06/24 03:11:44;;;;;;;5.25;3.50;;;;;;;22.36;65.34;94566.56;4880024;29;20593;-85
2022/06/24 03:14:12;;;;;;;7.40;3.42;;;;;;;22.33;65.50;94564.41;4881105;29;20665;-86
2022/06/24 03:16:38;;;;;;;5.43;3.47;;;;;;;22.29;65.35;94562.22;4878952;29;20262;-85
2022/06/24 03:19:07;;;;;;;6.25;4.35;;;;;;;22.36;65.24;94579.59;4881309;29;20225;-84
2022/06/24 03:21:33;;;;;;;4.22;3.25;;;;;;;22.41;65.45;94577.97;4880990;29;20215;-80
2022/06/24 03:24:00;;;;;;;7.65;3.60;;;;;;;22.44;65.07;94568.91;4881510;29;20201;-81
2022/06/24 03:26:27;;;;;;;4.20;3.30;;;;;;;22.46;64.93;94575.53;4882026;29;20600;-84
2022/06/24 03:28:54;;;;;;;6.20;3.35;;;;;;;22.54;65.05;94584.88;4881695;29;20269;-82
2022/06/24 03:31:21;;;;;;;4.22;2.83;;;;;;;22.60;64.71;94583.22;4882111;29;20692;-78
2022/06/24 03:33:48;;;;;;;3.42;2.95;;;;;;;22.62;64.81;94581.19;4882696;29;20648;-83
2022/06/24 03:36:16;;;;;;;3.63;3.33;;;;;;;22.66;64.78;94584.94;4884968;29;20201;-83
2022/06/24 03:38:43;;;;;;;4.38;3.33;;;;;;;22.61;64.44;94579.59;4889157;29;20185;-83
2022/06/24 03:41:10;;;;;;;5.70;3.30;;;;;;;22.69;64.50;94587.13;4890899;29;20189;-80
2022/06/24 03:43:37;;;;;;;4.07;3.60;;;;;;;22.71;64.41;94587.72;4885907;29;20193;-78
2022/06/24 03:46:04;;;;;;;5.00;3.33;;;;;;;22.71;64.36;94574.66;4882633;29;20269;-85
2022/06/24 03:48:31;;;;;;;3.65;3.22;;;;;;;22.79;64.11;94585.63;4882284;29;20220;-85
2022/06/24 03:50:58;;;;;;;8.13;3.20;;;;;;;22.83;63.84;94579.97;4882265;29;20186;-89
2022/06/24 03:53:27;;;;;;;5.72;2.90;;;;;;;22.87;63.90;94596.78;4881975;29;20204;-83
2022/06/24 03:55:53;;;;;;;7.53;3.47;;;;;;;22.87;63.58;94596.78;4882404;29;20205;-81
2022/06/24 03:58:20;;;;;;;9.60;3.72;;;;;;;22.83;63.60;94575.56;4882267;29;20200;-75
2022/06/24 04:00:47;;;;;;;5.25;3.10;;;;;;;22.87;63.69;94576.72;4881359;29;20196;-83
2022/06/24 04:03:14;;;;;;;6.35;3.63;;;;;;;22.63;63.83;94538.47;4881944;29;20221;-84
2022/06/24 04:05:41;;;;;;;3.05;2.80;;;;;;;22.91;63.84;94574.50;4881991;29;20207;-86
2022/06/24 04:08:08;;;;;;;4.25;3.00;;;;;;;22.93;63.68;94577.72;4883192;29;20287;-80
2022/06/24 04:10:41;;;;;;;3.60;3.13;;;;;;;22.97;63.67;94578.84;4886433;29;20193;-76
2022/06/24 04:13:08;;;;;;;4.10;3.00;;;;;;;22.97;63.65;94581.47;4885528;29;20200;-83
2022/06/24 04:15:35;;;;;;;5.18;3.15;;;;;;;22.97;63.46;94584.88;4884275;29;20308;-81
2022/06/24 04:18:04;;;;;;;4.82;3.45;;;;;;;23.02;63.61;94586.84;4884138;29;20224;-83
2022/06/24 04:20:34;;;;;;;4.18;3.58;;;;;;;23.07;63.38;94600.03;4884987;29;20317;-85
2022/06/24 04:23:01;;;;;;;4.40;2.92;;;;;;;23.08;63.43;94603.44;4884357;29;20189;-82
2022/06/24 04:25:30;;;;;;;5.80;3.15;;;;;;;23.08;63.28;94590.38;4884298;29;20201;-82
2022/06/24 04:27:58;;;;;;;6.85;3.10;;;;;;;23.10;63.47;94599.59;4884502;29;20224;-84
2022/06/24 04:30:25;;;;;;;7.65;3.58;;;;;;;23.12;63.56;94602.00;4882898;29;20197;-82
2022/06/24 04:32:52;;;;;;;7.05;3.50;;;;;;;23.12;63.28;94596.78;4880668;29;20219;-84
2022/06/24 04:35:19;;;;;;;6.35;4.25;;;;;;;23.17;63.50;94602.91;4880746;29;20212;-84
2022/06/24 04:37:46;;;;;;;6.75;3.70;;;;;;;23.19;63.42;94613.94;4880056;29;20231;-80
2022/06/24 04:40:14;;;;;;;9.90;4.45;;;;;;;23.21;63.31;94622.34;4880981;29;20208;-83
2022/06/24 04:42:41;;;;;;;8.43;4.63;;;;;;;23.26;63.24;94619.88;4881585;29;20193;-80
2022/06/24 04:45:11;;;;;;;7.30;5.88;;;;;;;23.26;63.06;94601.59;4884103;29;20306;-77
2022/06/24 04:47:38;;;;;;;10.88;6.93;;;;;;;23.46;62.51;94618.88;4883466;29;20239;-76
2022/06/24 04:50:07;;;;;;;7.78;5.03;;;;;;;23.51;62.54;94605.94;4884461;29;20203;-77
2022/06/24 04:52:34;;;;;;;7.07;5.70;;;;;;;23.68;62.19;94612.19;4881472;29;20995;-76
2022/06/24 04:55:01;;;;;;;7.43;4.70;;;;;;;23.75;61.91;94602.47;4882175;29;20196;-74
2022/06/24 04:57:28;;;;;;;5.35;4.35;;;;;;;23.96;62.02;94616.84;4880029;29;20235;-76
2022/06/24 04:59:56;;;;;;;7.90;4.40;;;;;;;24.10;62.24;94617.44;4879486;29;20669;-78
2022/06/24 05:02:24;;;;;;;5.53;3.97;;;;;;;24.28;61.89;94608.72;4880057;29;20255;-81
2022/06/24 05:04:51;;;;;;;6.07;4.60;;;;;;;24.37;61.73;94589.13;4879615;29;20230;-78
2022/06/24 05:07:18;;;;;;;4.70;4.18;;;;;;;24.75;61.47;94606.97;4880896;29;20228;-86
2022/06/24 05:09:47;;;;;;;7.18;3.95;;;;;;;24.88;61.17;94602.56;4881208;29;20190;-86
2022/06/24 05:12:13;;;;;;;5.95;3.88;;;;;;;25.12;61.00;94616.41;4880104;29;20201;-76
2022/06/24 05:14:46;;;;;;;5.32;3.50;;;;;;;25.14;60.44;94591.63;4881095;29;20208;-77
2022/06/24 05:17:16;;;;;;;8.02;3.97;;;;;;;25.52;60.46;94634.81;4881905;29;20197;-86
2022/06/24 05:20:02;;;;;;;4.90;3.95;;;;;;;25.62;60.11;94628.97;4881337;29;20240;-85
2022/06/24 05:22:29;;;;;;;7.07;4.28;;;;;;;25.70;60.24;94634.63;4882282;29;20189;-81
2022/06/24 05:25:06;;;;;;;7.93;3.90;;;;;;;25.83;59.99;94640.66;4881535;29;20207;-84
2022/06/24 05:27:39;;;;;;;8.13;4.22;;;;;;;26.07;59.68;94638.72;4881201;29;20228;-85
2022/06/24 05:30:11;;;;;;;7.00;4.20;;;;;;;26.41;60.27;94644.81;4881400;29;20204;-86
2022/06/24 05:32:38;;;;;;;8.23;3.92;;;;;;;26.77;61.64;94636.50;4881211;29;20749;-87
2022/06/24 05:35:07;;;;;;;5.68;3.75;;;;;;;27.35;62.17;94644.16;4881336;29;20207;-84
2022/06/24 05:37:34;;;;;;;4.47;3.92;;;;;;;27.90;60.89;94654.56;4879842;29;20680;-86
2022/06/24 05:40:05;;;;;;;4.05;3.67;;;;;;;28.50;59.29;94652.78;4880325;29;20193;-86
2022/06/24 05:42:34;;;;;;;5.85;4.18;;;;;;;29.09;57.91;94650.06;4881114;29;20276;-86
2022/06/24 05:45:00;;;;;;;7.00;4.28;;;;;;;29.66;57.40;94646.72;4881065;29;20197;-84
2022/06/24 05:47:27;;;;;;;5.15;3.47;;;;;;;30.29;56.56;94657.19;4880591;29;20224;-83
2022/06/24 05:49:54;;;;;;;8.18;4.30;;;;;;;30.95;55.58;94651.91;4881903;29;20629;-86
2022/06/24 05:55:03;;;;;;;6.90;3.50;;;;;;;32.57;52.21;94658.72;4878818;29;20193;-86
2022/06/24 05:57:30;;;;;;;4.18;3.38;;;;;;;33.38;50.33;94651.91;4881589;29;20200;-85
2022/06/24 05:59:57;;;;;;;3.40;3.10;;;;;;;34.22;47.88;94670.03;4882199;29;20558;-83
2022/06/24 06:02:25;;;;;;;4.10;3.35;;;;;;;34.68;46.42;94670.19;4884761;29;20261;-83
2022/06/24 06:04:52;;;;;;;5.22;3.13;;;;;;;34.99;45.02;94683.78;4885439;29;20193;-86
2022/06/24 06:07:19;;;;;;;4.03;3.00;;;;;;;35.09;44.01;94680.16;4884578;29;20220;-83
2022/06/24 06:09:48;;;;;;;5.28;3.60;;;;;;;35.09;42.99;94678.28;4884055;29;20197;-86
2022/06/24 06:12:15;;;;;;;4.05;2.80;;;;;;;35.12;42.42;94677.69;4884629;29;20665;-85
2022/06/24 06:14:42;;;;;;;5.72;3.53;;;;;;;35.18;41.79;94659.78;4884203;29;20201;-83
2022/06/24 06:17:09;;;;;;;3.83;3.13;;;;;;;35.32;41.54;94665.09;4884223;29;20201;-85
2022/06/24 06:19:39;;;;;;;6.38;3.50;;;;;;;35.53;41.97;94670.88;4882528;29;20321;-85
2022/06/24 06:22:06;;;;;;;5.97;3.15;;;;;;;35.49;41.77;94620.13;4882457;29;20643;-80
2022/06/24 06:24:33;;;;;;;3.08;2.83;;;;;;;35.98;41.67;94660.44;4882792;29;20671;-80
2022/06/24 06:27:01;;;;;;;5.15;3.17;;;;;;;36.26;41.66;94653.16;4884742;29;20221;-85
2022/06/24 06:29:28;;;;;;;4.90;2.70;;;;;;;36.62;41.43;94648.63;4887478;29;20197;-85
2022/06/24 06:34:41;;;;;;;4.45;2.85;;;;;;;37.61;40.13;94664.50;4883881;29;20570;-85
2022/06/24 06:37:08;;;;;;;3.30;2.55;;;;;;;38.00;39.43;94641.53;4887526;29;20332;-85
2022/06/24 06:39:38;;;;;;;4.28;2.78;;;;;;;38.62;38.72;94660.00;4890490;29;20232;-84
2022/06/24 06:42:07;;;;;;;2.83;2.60;;;;;;;39.13;37.94;94648.44;4885334;29;20257;-85
2022/06/24 06:44:34;;;;;;;5.03;2.38;;;;;;;39.59;37.28;94646.84;4883236;29;20196;-83
2022/06/24 06:47:01;;;;;;;2.85;2.55;;;;;;;40.08;36.50;94649.91;4883530;29;20232;-85
2022/06/24 06:49:30;;;;;;;2.30;2.20;;;;;;;40.51;35.74;94651.50;4885198;29;20208;-84
2022/06/24 06:52:05;;;;;;;3.63;2.85;;;;;;;40.97;34.59;94644.31;4884164;29;20192;-76
2022/06/24 06:54:37;;;;;;;4.13;2.28;;;;;;;41.41;33.92;94643.84;4884791;29;20203;-76
2022/06/24 06:57:07;;;;;;;3.65;2.65;;;;;;;41.81;33.29;94627.88;4884984;29;20242;-78
2022/06/24 06:59:34;;;;;;;2.40;2.20;;;;;;;42.08;32.55;94613.69;4882292;29;20215;-75
2022/06/24 07:02:01;;;;;;;5.13;2.47;;;;;;;42.58;32.30;94633.94;4883122;29;20196;-75
2022/06/24 07:04:28;;;;;;;3.63;2.70;;;;;;;42.92;31.57;94631.75;4883486;29;20204;-77
2022/06/24 07:06:55;;;;;;;3.67;2.53;;;;;;;43.25;31.03;94642.25;4881426;29;20232;-84
2022/06/24 07:09:22;;;;;;;3.78;2.78;;;;;;;43.50;30.44;94629.41;4881045;29;20196;-86
2022/06/24 07:11:49;;;;;;;3.13;2.47;;;;;;;43.86;29.87;94635.63;4882145;29;20203;-86
2022/06/24 07:14:17;;;;;;;3.05;2.22;;;;;;;44.14;29.32;94634.69;4881344;29;20193;-86
2022/06/24 07:16:44;;;;;;;2.90;2.60;;;;;;;44.37;29.16;94627.50;4881392;29;20201;-86
2022/06/24 07:19:14;;;;;;;3.10;2.78;;;;;;;44.59;29.13;94625.97;4883077;29;20198;-86
2022/06/24 07:21:43;;;;;;;4.55;2.88;;;;;;;44.87;28.98;94630.41;4899462;29;20195;-86
2022/06/24 07:24:10;;;;;;;5.13;2.30;;;;;;;45.01;28.01;94606.34;4899993;29;20184;-86
2022/06/24 07:26:40;;;;;;;3.10;2.60;;;;;;;45.35;27.47;94620.81;4899275;29;20212;-79
2022/06/24 07:29:07;;;;;;;3.15;2.65;;;;;;;45.53;27.36;94629.22;4899103;29;20188;-86
2022/06/24 07:31:35;;;;;;;2.53;2.33;;;;;;;45.67;27.54;94634.06;4899640;29;20191;-80
2022/06/24 07:34:04;;;;;;;3.53;2.30;;;;;;;45.74;26.76;94616.03;4900470;29;20199;-85
2022/06/24 07:36:31;;;;;;;2.72;2.47;;;;;;;45.90;26.99;94626.72;4899563;29;20672;-86
2022/06/24 07:38:59;;;;;;;4.38;2.50;;;;;;;46.01;26.89;94626.84;4899541;29;20672;-87
2022/06/24 07:41:26;;;;;;;4.07;2.30;;;;;;;46.14;26.12;94624.69;4900605;29;20223;-79
2022/06/24 07:43:53;;;;;;;2.53;2.28;;;;;;;46.27;25.99;94626.03;4899702;29;20275;-85
2022/06/24 07:46:20;;;;;;;3.40;2.30;;;;;;;46.28;25.77;94616.78;4900220;29;20735;-85
2022/06/24 07:48:49;;;;;;;2.60;2.40;;;;;;;46.30;25.89;94619.13;4902253;29;20231;-85
2022/06/24 07:51:17;;;;;;;2.38;2.05;;;;;;;46.30;25.20;94614.50;4902226;29;20230;-84
2022/06/24 07:53:47;;;;;;;3.30;2.55;;;;;;;46.28;25.64;94614.84;4902660;29;20195;-85
2022/06/24 07:59:00;;;;;;;3.38;2.05;;;;;;;46.23;25.33;94611.69;4898164;29;20218;-85
2022/06/24 08:01:27;;;;;;;3.35;2.00;;;;;;;46.20;25.41;94607.78;4901434;29;20204;-79
2022/06/24 08:04:07;;;;;;;3.30;1.98;;;;;;;46.17;25.37;94608.53;4902422;29;20235;-87
2022/06/24 08:06:35;;;;;;;5.35;2.28;;;;;;;46.13;25.28;94607.69;4901796;29;20195;-85
2022/06/24 08:09:02;;;;;;;3.33;2.40;;;;;;;45.99;25.62;94608.28;4901361;29;20196;-89
2022/06/24 08:11:29;;;;;;;2.30;2.05;;;;;;;45.65;25.45;94583.06;4899857;29;20201;-87
2022/06/24 08:13:56;;;;;;;2.45;2.25;;;;;;;45.70;25.60;94604.38;4903200;29;20203;-82
2022/06/24 08:16:23;;;;;;;2.50;2.30;;;;;;;45.68;25.65;94619.38;4900189;29;20200;-86
2022/06/24 08:18:50;;;;;;;2.60;2.13;;;;;;;45.58;25.64;94626.19;4884196;29;20236;-82
2022/06/24 08:21:19;;;;;;;4.10;2.20;;;;;;;45.48;25.51;94627.59;4901527;29;20231;-86
2022/06/24 08:23:46;;;;;;;2.25;2.05;;;;;;;45.41;25.04;94613.97;4901500;29;20563;-87
2022/06/24 08:26:13;;;;;;;5.13;2.38;;;;;;;45.32;25.06;94615.34;4901434;29;20184;-85
2022/06/24 08:28:41;;;;;;;3.45;2.35;;;;;;;45.19;25.57;94612.84;4903531;29;20268;-84
2022/06/24 08:31:08;;;;;;;2.33;1.80;;;;;;;45.09;25.27;94610.75;4906629;29;20198;-86
2022/06/24 08:33:36;;;;;;;2.53;2.08;;;;;;;44.88;25.97;94594.94;4906399;29;20200;-87
2022/06/24 08:36:04;;;;;;;3.17;2.17;;;;;;;44.87;25.59;94614.97;4906840;29;20210;-85
2022/06/24 08:38:33;;;;;;;2.60;2.00;;;;;;;44.76;25.73;94614.00;4905972;29;20192;-85
2022/06/24 08:41:03;;;;;;;3.47;2.03;;;;;;;44.62;25.59;94614.47;4906862;29;20192;-85
2022/06/24 08:43:32;;;;;;;2.53;2.22;;;;;;;44.44;26.14;94618.78;4906655;29;20196;-83
2022/06/24 08:46:05;;;;;;;2.53;2.00;;;;;;;44.26;26.20;94611.09;4906043;29;20196;-87
2022/06/24 08:48:32;;;;;;;4.53;2.17;;;;;;;44.12;26.33;94620.78;4903179;29;20231;-86
2022/06/24 08:51:00;;;;;;;2.92;1.95;;;;;;;43.94;26.46;94615.78;4902000;29;20192;-84
2022/06/24 08:53:29;;;;;;;4.53;2.15;;;;;;;43.85;26.01;94617.13;4902850;29;20203;-83
2022/06/24 08:55:59;;;;;;;2.95;2.45;;;;;;;43.70;26.48;94616.78;4903583;29;20203;-86
2022/06/24 08:58:25;;;;;;;3.83;2.60;;;;;;;43.57;26.54;94621.50;4902978;29;20184;-85
2022/06/24 09:00:52;;;;;;;2.45;2.25;;;;;;;43.38;26.76;94618.69;4902850;29;20279;-85
2022/06/24 09:03:19;;;;;;;3.78;2.17;;;;;;;43.27;26.68;94618.47;4901222;29;20198;-85
2022/06/24 09:05:46;;;;;;;2.88;1.90;;;;;;;43.12;27.14;94615.75;4902522;29;20199;-83
2022/06/24 09:08:16;;;;;;;2.72;2.15;;;;;;;42.96;27.30;94605.72;4903785;29;20238;-80
2022/06/24 09:11:05;;;;;;;2.67;2.25;;;;;;;42.80;27.17;94604.94;4902366;29;20679;-84
2022/06/24 09:13:42;;;;;;;2.70;2.00;;;;;;;42.59;27.53;94605.91;4902905;29;20226;-83
2022/06/24 09:16:10;;;;;;;2.40;2.20;;;;;;;42.46;27.35;94595.56;4902948;29;20196;-86
2022/06/24 09:18:37;;;;;;;3.45;1.73;;;;;;;42.26;27.29;94594.63;4902965;29;20210;-85
2022/06/24 09:21:04;;;;;;;4.82;2.58;;;;;;;42.13;27.49;94595.75;4903639;29;20716;-85
2022/06/24 09:23:31;;;;;;;2.53;2.05;;;;;;;41.97;27.47;94604.56;4902259;29;20565;-85
2022/06/24 09:26:00;;;;;;;1.80;1.70;;;;;;;41.79;27.57;94603.97;4903838;29;20198;-80
2022/06/24 09:28:29;;;;;;;2.42;2.00;;;;;;;41.57;27.80;94601.78;4902687;29;20303;-75
2022/06/24 09:31:02;;;;;;;2.28;2.00;;;;;;;41.23;27.88;94576.91;4902109;29;20199;-78
2022/06/24 09:33:36;;;;;;;2.42;1.75;;;;;;;41.09;28.07;94582.59;4902805;29;20203;-76
2022/06/24 09:36:04;;;;;;;3.58;2.30;;;;;;;41.04;27.96;94604.31;4902018;29;20192;-81
2022/06/24 09:38:31;;;;;;;2.33;2.13;;;;;;;40.90;28.48;94606.50;4902361;29;20204;-84
2022/06/24 09:41:04;;;;;;;2.85;1.80;;;;;;;40.71;28.57;94607.00;4898954;29;20200;-84
2022/06/24 09:43:31;;;;;;;2.28;1.98;;;;;;;40.56;28.61;94616.44;4900616;29;20200;-80
2022/06/24 09:45:59;;;;;;;2.10;1.90;;;;;;;40.41;29.01;94608.97;4900774;29;20192;-84
2022/06/24 09:48:29;;;;;;;2.25;1.80;;;;;;;40.26;28.78;94618.41;4898334;29;20712;-85
2022/06/24 09:50:57;;;;;;;2.00;1.80;;;;;;;40.11;29.15;94611.78;4900976;29;20279;-84
2022/06/24 09:53:26;;;;;;;4.47;1.73;;;;;;;39.97;29.47;94608.53;4903556;29;20237;-85
2022/06/24 09:55:53;;;;;;;2.40;2.20;;;;;;;39.80;29.59;94605.97;4904433;29;20189;-80
2022/06/24 09:58:21;;;;;;;2.92;2.30;;;;;;;39.59;29.82;94600.53;4901408;29;20668;-85
2022/06/24 10:00:49;;;;;;;2.40;2.20;;;;;;;39.46;30.03;94610.38;4900259;29;20204;-86
2022/06/24 10:03:17;;;;;;;2.83;1.80;;;;;;;39.23;30.20;94607.19;4899586;29;20295;-84
2022/06/24 10:05:46;;;;;;;3.85;2.13;;;;;;;39.10;30.11;94608.16;4899503;29;20204;-77
2022/06/24 10:08:15;;;;;;;1.67;1.58;;;;;;;38.95;30.30;94622.84;4902207;29;20299;-83
2022/06/24 10:10:49;;;;;;;5.20;2.00;;;;;;;38.78;30.29;94614.88;4902328;29;20258;-86
2022/06/24 10:13:24;;;;;;;2.45;2.10;;;;;;;38.42;30.40;94596.47;4901826;29;20189;-85
2022/06/24 10:15:51;;;;;;;3.80;2.00;;;;;;;38.40;30.51;94621.66;4901725;29;20196;-85
2022/06/24 10:18:20;;;;;;;2.70;1.85;;;;;;;38.25;30.63;94621.28;4899387;29;20588;-84
2022/06/24 10:20:51;;;;;;;2.00;1.60;;;;;;;38.16;30.43;94622.06;4899777;29;20264;-84
2022/06/24 10:23:39;;;;;;;2.08;1.98;;;;;;;38.06;31.06;94619.72;4899919;29;20291;-79
2022/06/24 10:26:14;;;;;;;2.85;1.88;;;;;;;37.86;30.84;94606.97;4900252;29;20193;-79
2022/06/24 10:29:17;;;;;;;1.77;1.67;;;;;;;37.83;30.94;94616.38;4900132;29;20297;-86
2022/06/24 10:32:02;;;;;;;3.40;1.83;;;;;;;37.69;30.99;94607.69;4902270;29;20196;-84
2022/06/24 10:34:32;;;;;;;2.47;1.90;;;;;;;37.54;30.80;94606.28;4902238;29;20203;-86
2022/06/24 10:37:04;;;;;;;4.32;2.08;;;;;;;37.46;30.93;94611.59;4900131;29;20564;-86
2022/06/24 10:39:33;;;;;;;3.72;2.30;;;;;;;37.29;30.88;94597.06;4901493;29;20200;-87
2022/06/24 10:42:04;;;;;;;3.05;1.80;;;;;;;37.22;30.88;94602.06;4900555;29;20193;-87
2022/06/24 10:44:32;;;;;;;3.67;1.75;;;;;;;37.16;31.07;94609.41;4900657;29;20291;-87
2022/06/24 10:47:26;;;;;;;3.08;1.85;;;;;;;37.07;31.21;94597.91;4900607;29;20208;-86
2022/06/24 10:50:00;;;;;;;4.40;1.77;;;;;;;36.99;31.14;94604.00;4901300;29;20211;-85
2022/06/24 10:52:32;;;;;;;5.97;2.10;;;;;;;36.91;31.24;94608.16;4902010;29;20971;-85
2022/06/24 10:55:35;;;;;;;3.03;2.25;;;;;;;36.84;31.30;94601.72;4901666;29;20196;-86
2022/06/24 10:58:05;;;;;;;2.20;1.60;;;;;;;36.73;31.54;94597.72;4895424;29;20567;-86
2022/06/24 11:00:50;;;;;;;4.32;1.77;;;;;;;36.66;31.48;94593.63;4899909;29;20253;-87
2022/06/24 11:03:22;;;;;;;3.72;1.83;;;;;;;36.62;31.43;94599.88;4899040;29;20291;-82
2022/06/24 11:05:51;;;;;;;2.45;1.75;;;;;;;36.59;31.54;94603.91;4898667;29;20264;-81
2022/06/24 11:08:21;;;;;;;5.65;1.80;;;;;;;36.57;31.35;94597.28;4900826;29;20216;-85
2022/06/24 11:10:49;;;;;;;2.15;1.42;;;;;;;36.52;31.35;94594.75;4899906;29;20645;-82
2022/06/24 11:13:17;;;;;;;2.58;2.10;;;;;;;36.36;31.27;94579.13;4899677;29;20669;-84
2022/06/24 11:15:48;;;;;;;2.05;1.60;;;;;;;36.51;30.67;94595.84;4900158;29;20596;-84
2022/06/24 11:18:17;;;;;;;1.70;1.60;;;;;;;36.43;30.92;94594.69;4900762;29;20201;-84
2022/06/24 11:20:48;;;;;;;2.25;2.05;;;;;;;36.31;30.91;94586.44;4901144;29;20228;-85
2022/06/24 11:23:18;;;;;;;2.15;1.58;;;;;;;36.30;31.02;94590.97;4900027;29;20204;-83
2022/06/24 11:25:52;;;;;;;3.53;1.70;;;;;;;36.24;31.05;94581.56;4899916;29;20211;-83
2022/06/24 11:28:23;;;;;;;1.75;1.65;;;;;;;36.27;30.85;94577.47;4898976;29;20228;-84
2022/06/24 11:30:51;;;;;;;1.92;1.63;;;;;;;36.23;30.47;94587.97;4899351;29;20206;-83
2022/06/24 11:33:18;;;;;;;1.75;1.65;;;;;;;36.16;30.83;94566.28;4899995;29;20668;-82
2022/06/24 11:35:49;;;;;;;2.47;1.92;;;;;;;36.12;30.97;94563.44;4898865;29;20207;-81
2022/06/24 11:38:19;;;;;;;2.25;2.05;;;;;;;36.02;30.95;94555.69;4897190;29;20211;-84
2022/06/24 11:40:56;;;;;;;1.80;1.70;;;;;;;35.96;31.30;94556.06;4896931;29;20669;-86
2022/06/24 11:43:23;;;;;;;2.63;2.20;;;;;;;35.87;31.20;94556.78;4898477;29;20193;-79
2022/06/24 11:45:52;;;;;;;2.00;1.90;;;;;;;35.80;31.48;94555.66;4899625;29;20268;-82
2022/06/24 11:48:22;;;;;;;2.55;2.05;;;;;;;35.73;31.51;94558.69;4899352;29;20231;-84
2022/06/24 11:50:50;;;;;;;3.28;2.13;;;;;;;35.67;31.62;94562.56;4900124;29;20743;-81
2022/06/24 11:53:23;;;;;;;2.53;1.95;;;;;;;35.59;31.54;94569.38;4900691;29;20295;-85
2022/06/24 11:55:54;;;;;;;2.20;2.00;;;;;;;35.52;31.74;94562.88;4903979;29;20192;-80